Time;durP1;ratioP1;P1;durP2;ratioP2;P2;SDS_P1;SDS_P2;PMS_P1;PMS_P2;Temp;Humidity;BMP_temperature;BMP_pressure;BME280_temperature;BME280_humidity;BME280_pressure;Samples;Min_cycle;Max_cycle;Signal;HPM_P1;HPM_P2
2021/08/17 00:01:52;;;;;;;2.20;1.00;;;;;;;13.30;84.00;102000.94;5077335;28;20513;-84
2021/08/17 00:04:18;;;;;;;2.35;1.02;;;;;;;13.09;84.49;101966.22;5048501;28;20531;-85
2021/08/17 00:06:44;;;;;;;5.13;1.33;;;;;;;13.18;84.37;101970.66;5063482;28;20040;-85
2021/08/17 00:09:09;;;;;;;5.22;1.70;;;;;;;13.19;84.43;101971.50;5061808;28;20028;-85
2021/08/17 00:11:35;;;;;;;2.88;1.20;;;;;;;13.29;84.39;101993.00;5051505;28;20036;-85
2021/08/17 00:14:01;;;;;;;5.75;1.48;;;;;;;13.22;84.49;101984.66;5065204;28;20055;-85
2021/08/17 00:16:26;;;;;;;5.88;1.45;;;;;;;13.27;84.66;101995.03;5046614;28;20039;-84
2021/08/17 00:18:52;;;;;;;6.15;1.08;;;;;;;13.16;85.14;101990.75;5048563;28;20108;-83
2021/08/17 00:21:17;;;;;;;6.53;1.20;;;;;;;13.17;85.52;101995.97;5070471;28;20027;-85
2021/08/17 00:23:43;;;;;;;2.85;1.02;;;;;;;13.17;85.48;101995.97;5067791;28;20035;-84
2021/08/17 00:26:09;;;;;;;3.33;1.08;;;;;;;13.18;85.86;101991.44;5079982;28;20020;-85
2021/08/17 00:28:34;;;;;;;4.97;1.25;;;;;;;13.17;85.93;101987.00;5048698;28;20036;-84
2021/08/17 00:31:00;;;;;;;5.72;1.23;;;;;;;13.16;85.71;101979.94;5041038;28;20025;-85
2021/08/17 00:33:26;;;;;;;4.57;1.00;;;;;;;13.13;86.10;101989.19;5076065;28;20028;-84
2021/08/17 00:35:55;;;;;;;5.53;1.20;;;;;;;13.11;86.11;101980.41;5051185;28;20386;-84
2021/08/17 00:38:21;;;;;;;4.65;1.10;;;;;;;13.12;86.36;101992.06;5062835;28;20048;-85
2021/08/17 00:40:47;;;;;;;4.38;1.40;;;;;;;13.08;86.53;101975.34;5065574;28;20020;-87
2021/08/17 00:43:12;;;;;;;5.72;1.27;;;;;;;13.15;86.40;101987.19;5063504;28;20108;-85
2021/08/17 00:45:38;;;;;;;7.20;1.17;;;;;;;13.10;86.21;101983.28;5061665;28;20017;-85
2021/08/17 00:48:04;;;;;;;4.70;1.20;;;;;;;13.08;86.57;101983.44;5083062;28;20486;-85
2021/08/17 00:50:34;;;;;;;7.07;1.27;;;;;;;13.14;86.19;101982.78;5064504;28;20348;-85
2021/08/17 00:53:01;;;;;;;7.57;1.42;;;;;;;13.11;86.14;101976.88;5057000;28;20465;-86
2021/08/17 00:55:27;;;;;;;5.28;1.50;;;;;;;13.12;85.96;101970.44;5068689;28;20042;-85
2021/08/17 00:57:53;;;;;;;9.57;1.50;;;;;;;13.23;85.53;101980.09;5078598;28;20048;-84
2021/08/17 01:00:19;;;;;;;5.90;1.33;;;;;;;13.29;84.95;101982.22;5082282;28;20062;-84
2021/08/17 01:02:46;;;;;;;7.40;2.70;;;;;;;13.28;84.72;101983.19;5071505;28;20029;-85
2021/08/17 01:05:13;;;;;;;6.20;1.65;;;;;;;13.30;84.67;101986.59;5068001;28;20020;-84
2021/08/17 01:07:39;;;;;;;5.57;1.48;;;;;;;13.29;84.37;101991.16;5068511;28;20095;-85
2021/08/17 01:10:06;;;;;;;3.40;1.38;;;;;;;13.34;83.71;101977.16;5067729;28;20024;-84
2021/08/17 01:12:42;;;;;;;8.20;2.47;;;;;;;13.40;83.90;101979.19;5070650;28;20490;-85
2021/08/17 01:15:11;;;;;;;7.65;2.55;;;;;;;13.40;83.63;101973.78;5083345;28;20027;-84
2021/08/17 01:17:37;;;;;;;5.20;1.65;;;;;;;13.41;83.17;101975.47;5068018;28;20032;-85
2021/08/17 01:20:04;;;;;;;6.85;2.22;;;;;;;13.33;83.46;101964.66;5084112;28;20025;-85
2021/08/17 01:22:29;;;;;;;7.03;1.90;;;;;;;13.23;83.64;101945.88;5065095;28;20407;-84
2021/08/17 01:24:55;;;;;;;6.35;2.08;;;;;;;13.37;83.35;101964.16;5047492;28;20020;-85
2021/08/17 01:27:22;;;;;;;5.93;1.85;;;;;;;13.42;83.94;101963.69;5061029;28;20028;-84
2021/08/17 01:29:48;;;;;;;7.68;2.33;;;;;;;13.44;83.77;101967.03;5085666;28;20107;-84
2021/08/17 01:32:15;;;;;;;14.98;2.47;;;;;;;13.40;83.63;101952.19;5054528;28;20020;-84
2021/08/17 01:34:41;;;;;;;8.05;2.15;;;;;;;13.42;83.78;101960.97;5070555;28;20111;-84
2021/08/17 01:37:07;;;;;;;9.70;2.50;;;;;;;13.44;83.41;101961.63;5046854;28;20040;-84
2021/08/17 01:39:33;;;;;;;8.10;2.28;;;;;;;13.38;83.76;101955.03;5063937;28;20047;-85
2021/08/17 01:41:59;;;;;;;4.28;1.73;;;;;;;13.38;83.72;101956.91;5077074;28;20032;-84
2021/08/17 01:44:25;;;;;;;8.75;3.03;;;;;;;13.36;83.48;101953.50;5064294;28;20032;-85
2021/08/17 01:46:50;;;;;;;9.43;2.45;;;;;;;13.37;83.50;101947.13;5052160;28;20081;-84
2021/08/17 01:49:17;;;;;;;10.80;2.40;;;;;;;13.45;83.48;101947.13;5051617;28;20735;-84
2021/08/17 01:51:44;;;;;;;8.80;1.98;;;;;;;13.42;83.88;101942.06;5063942;28;20020;-84
2021/08/17 01:54:12;;;;;;;8.10;2.20;;;;;;;13.26;83.79;101917.66;5053735;28;20020;-83
2021/08/17 01:56:38;;;;;;;8.95;2.65;;;;;;;13.33;83.77;101934.94;5065373;28;20028;-84
2021/08/17 01:59:04;;;;;;;13.32;3.30;;;;;;;13.32;83.77;101935.97;5083602;28;20024;-83
2021/08/17 02:01:29;;;;;;;9.95;2.55;;;;;;;13.30;84.29;101938.81;5081164;28;20551;-84
2021/08/17 02:03:55;;;;;;;8.25;2.17;;;;;;;13.26;84.62;101940.16;5045931;28;20060;-84
2021/08/17 02:06:21;;;;;;;12.13;2.92;;;;;;;13.28;84.76;101940.81;5051208;28;20031;-84
2021/08/17 02:08:46;;;;;;;11.88;2.42;;;;;;;13.29;84.97;101937.13;5068265;28;20064;-85
2021/08/17 02:11:12;;;;;;;6.43;2.22;;;;;;;13.11;85.30;101904.81;5051770;28;20145;-84
2021/08/17 02:13:38;;;;;;;7.82;1.90;;;;;;;13.29;85.33;101929.03;5086461;28;20036;-84
2021/08/17 02:16:03;;;;;;;10.77;2.95;;;;;;;13.35;85.23;101938.31;5054176;28;20078;-86
2021/08/17 02:18:31;;;;;;;7.45;2.45;;;;;;;13.29;85.23;101929.03;5086208;28;20078;-85
2021/08/17 02:20:58;;;;;;;10.30;2.53;;;;;;;13.38;85.27;101946.94;5045359;28;20031;-85
2021/08/17 02:23:25;;;;;;;7.28;2.13;;;;;;;13.32;85.45;101939.50;5066608;28;20040;-85
2021/08/17 02:25:51;;;;;;;8.15;2.25;;;;;;;13.30;86.14;101937.97;5053898;28;20034;-85
2021/08/17 02:28:16;;;;;;;12.05;2.80;;;;;;;13.23;86.37;101920.69;5057284;28;20028;-85
2021/08/17 02:30:42;;;;;;;13.15;2.13;;;;;;;13.19;86.47;101917.47;5048020;28;20027;-85
2021/08/17 02:33:08;;;;;;;9.68;2.00;;;;;;;13.28;86.74;101942.69;5081203;28;20106;-85
2021/08/17 02:35:34;;;;;;;6.45;1.92;;;;;;;13.25;86.32;101933.03;5051279;28;20019;-85
2021/08/17 02:37:59;;;;;;;13.70;2.45;;;;;;;13.29;86.32;101934.44;5067608;28;20027;-84
2021/08/17 02:40:25;;;;;;;7.57;2.92;;;;;;;13.30;86.00;101941.50;5078147;28;20064;-85
2021/08/17 02:42:51;;;;;;;8.32;2.35;;;;;;;13.30;85.77;101936.09;5063400;28;20100;-84
2021/08/17 02:45:16;;;;;;;12.93;2.78;;;;;;;13.28;85.49;101931.88;5066794;28;20099;-84
2021/08/17 02:47:42;;;;;;;13.65;2.45;;;;;;;13.25;85.30;101921.38;5060027;28;20508;-84
2021/08/17 02:50:08;;;;;;;10.13;2.38;;;;;;;13.33;84.61;101934.94;5091445;28;20106;-85
2021/08/17 02:52:35;;;;;;;6.75;2.63;;;;;;;13.12;84.53;101911.88;5099609;28;20486;-86
2021/08/17 02:55:00;;;;;;;14.02;2.63;;;;;;;13.25;84.55;101926.78;5062955;28;20054;-87
2021/08/17 02:57:27;;;;;;;8.98;2.03;;;;;;;13.24;84.46;101928.66;5084018;28;20032;-87
2021/08/17 02:59:53;;;;;;;6.97;2.30;;;;;;;13.21;84.02;101923.56;5096841;28;20028;-85
2021/08/17 03:02:18;;;;;;;7.40;2.17;;;;;;;13.18;83.91;101918.50;5078057;28;20021;-85
2021/08/17 03:04:44;;;;;;;8.95;2.67;;;;;;;13.17;83.49;101909.53;5084823;28;20044;-87
2021/08/17 03:07:10;;;;;;;8.73;2.28;;;;;;;13.15;83.21;101905.31;5059254;28;20028;-85
2021/08/17 03:09:35;;;;;;;7.40;2.10;;;;;;;13.24;83.31;101922.41;5072230;28;20043;-85
2021/08/17 03:12:01;;;;;;;12.48;2.40;;;;;;;13.05;83.28;101888.44;5061816;28;20025;-86
2021/08/17 03:14:27;;;;;;;7.57;2.25;;;;;;;13.32;83.40;101917.06;5062622;28;20039;-87
2021/08/17 03:16:52;;;;;;;9.20;2.30;;;;;;;13.29;83.18;101911.97;5060949;28;20063;-86
2021/08/17 03:19:18;;;;;;;10.68;2.60;;;;;;;13.32;83.35;101917.88;5080455;28;20031;-86
2021/08/17 03:21:44;;;;;;;9.80;2.45;;;;;;;13.20;83.07;101906.53;5059235;28;20027;-85
2021/08/17 03:24:10;;;;;;;8.65;2.00;;;;;;;13.29;83.20;101912.81;5091803;28;20024;-85
2021/08/17 03:26:36;;;;;;;10.77;2.45;;;;;;;13.30;82.31;101925.31;5096466;28;20028;-86
2021/08/17 03:29:02;;;;;;;8.40;2.55;;;;;;;13.24;82.17;101912.44;5062883;28;20119;-85
2021/08/17 03:31:27;;;;;;;12.05;2.75;;;;;;;13.29;82.26;101917.38;5094209;28;20032;-84
2021/08/17 03:33:53;;;;;;;9.60;2.25;;;;;;;13.29;81.69;101907.41;5051689;28;20024;-84
2021/08/17 03:36:19;;;;;;;7.70;2.20;;;;;;;13.29;81.24;101906.56;5062443;28;20028;-84
2021/08/17 03:38:44;;;;;;;7.35;2.50;;;;;;;13.30;80.76;101908.25;5070008;28;20039;-85
2021/08/17 03:41:10;;;;;;;9.93;2.20;;;;;;;13.35;80.90;101905.91;5074472;28;20020;-84
2021/08/17 03:43:37;;;;;;;9.45;2.65;;;;;;;13.36;80.40;101907.59;5065056;28;20482;-85
2021/08/17 03:46:06;;;;;;;6.82;2.13;;;;;;;13.22;80.32;101884.75;5079735;28;20036;-86
2021/08/17 03:48:35;;;;;;;7.70;2.38;;;;;;;13.03;80.19;101856.19;5068027;28;20573;-86
2021/08/17 03:51:01;;;;;;;11.02;3.38;;;;;;;13.17;80.44;101877.13;5061790;28;20035;-86
2021/08/17 03:53:27;;;;;;;10.95;2.50;;;;;;;13.10;80.58;101856.38;5067971;28;20386;-86
2021/08/17 03:55:53;;;;;;;10.43;2.65;;;;;;;13.29;80.27;101890.38;5046414;28;20040;-83
2021/08/17 03:58:19;;;;;;;7.70;3.00;;;;;;;13.35;80.30;101900.50;5080343;28;20019;-86
2021/08/17 04:00:45;;;;;;;10.15;2.90;;;;;;;13.32;80.12;101895.44;5049016;28;20035;-86
2021/08/17 04:03:11;;;;;;;12.43;2.70;;;;;;;13.23;79.67;101877.47;5070353;28;20020;-87
2021/08/17 04:05:36;;;;;;;7.72;2.97;;;;;;;13.28;79.68;101884.09;5072220;28;20047;-85
2021/08/17 04:08:04;;;;;;;11.50;2.67;;;;;;;13.16;79.61;101869.22;5063431;28;20069;-86
2021/08/17 04:10:30;;;;;;;12.30;3.08;;;;;;;13.33;79.61;101902.53;5060368;28;20024;-85
2021/08/17 04:12:56;;;;;;;10.30;2.58;;;;;;;13.17;79.88;101879.00;5041857;28;20371;-85
2021/08/17 04:15:22;;;;;;;11.05;2.95;;;;;;;13.29;79.93;101893.06;5082307;28;20080;-85
2021/08/17 04:17:47;;;;;;;11.05;3.25;;;;;;;13.25;79.89;101895.22;5039040;28;20032;-85
2021/08/17 04:20:13;;;;;;;9.70;2.88;;;;;;;13.28;80.07;101902.16;5063916;28;20120;-86
2021/08/17 04:22:39;;;;;;;10.00;3.00;;;;;;;13.22;80.30;101900.09;5065511;28;20028;-85
2021/08/17 04:25:05;;;;;;;11.25;3.08;;;;;;;13.24;80.45;101900.78;5065500;28;20028;-85
2021/08/17 04:27:31;;;;;;;8.52;2.78;;;;;;;13.23;80.56;101896.38;5079070;28;20044;-86
2021/08/17 04:29:57;;;;;;;7.60;2.47;;;;;;;13.09;80.48;101870.88;5067918;28;20063;-85
2021/08/17 04:32:22;;;;;;;9.80;2.72;;;;;;;13.22;80.80;101902.81;5064724;28;20108;-85
2021/08/17 04:34:48;;;;;;;14.18;3.72;;;;;;;13.21;81.02;101907.38;5064832;28;20031;-86
2021/08/17 04:37:14;;;;;;;9.68;3.05;;;;;;;13.02;81.01;101873.41;5057523;28;20043;-86
2021/08/17 04:39:40;;;;;;;11.20;2.70;;;;;;;13.23;81.24;101904.50;5054257;28;20115;-85
2021/08/17 04:42:05;;;;;;;7.97;2.42;;;;;;;13.22;80.95;101897.41;5059121;28;20031;-84
2021/08/17 04:44:31;;;;;;;11.25;2.70;;;;;;;13.17;81.29;101893.34;5068639;28;20035;-85
2021/08/17 04:46:57;;;;;;;13.18;3.03;;;;;;;13.08;81.22;101886.22;5053768;28;20032;-85
2021/08/17 04:49:23;;;;;;;11.57;2.63;;;;;;;13.20;81.10;101901.13;5086651;28;20367;-87
2021/08/17 04:51:48;;;;;;;11.95;3.30;;;;;;;13.26;80.94;101913.16;5064892;28;20536;-87
2021/08/17 04:54:14;;;;;;;12.80;3.47;;;;;;;13.24;81.14;101915.13;5054073;28;20501;-85
2021/08/17 04:56:39;;;;;;;12.20;2.83;;;;;;;13.26;81.02;101917.66;5052814;28;20422;-86
2021/08/17 04:59:05;;;;;;;12.27;2.70;;;;;;;13.23;80.94;101904.50;5055319;28;20023;-86
2021/08/17 05:01:31;;;;;;;10.70;2.88;;;;;;;13.22;80.50;101900.94;5070928;28;20024;-87
2021/08/17 05:03:58;;;;;;;12.13;2.35;;;;;;;13.28;80.52;101921.06;5072762;28;20482;-85
2021/08/17 05:06:23;;;;;;;8.98;2.30;;;;;;;13.19;80.61;101902.13;5079591;28;20086;-87
2021/08/17 05:08:49;;;;;;;9.45;2.45;;;;;;;13.08;80.66;101883.53;5086548;28;20579;-86
2021/08/17 05:11:15;;;;;;;6.18;2.42;;;;;;;13.27;80.77;101905.91;5057083;28;20851;-86
2021/08/17 05:13:41;;;;;;;11.25;2.70;;;;;;;13.30;80.69;101902.84;5069157;28;20052;-85
2021/08/17 05:16:07;;;;;;;6.90;2.05;;;;;;;13.34;81.27;101904.22;5069234;28;20097;-85
2021/08/17 05:18:32;;;;;;;8.25;2.10;;;;;;;13.08;81.14;101861.09;5085174;28;20024;-86
2021/08/17 05:21:02;;;;;;;7.63;2.58;;;;;;;13.32;81.17;101909.78;5071051;28;20032;-85
2021/08/17 05:23:29;;;;;;;6.55;2.40;;;;;;;13.10;81.30;101867.19;5054421;28;20080;-86
2021/08/17 05:25:54;;;;;;;5.80;1.75;;;;;;;13.30;81.59;101908.25;5087703;28;20035;-86
2021/08/17 05:28:21;;;;;;;6.38;1.80;;;;;;;13.31;81.77;101904.53;5081655;28;20398;-87
2021/08/17 05:30:47;;;;;;;5.25;1.48;;;;;;;13.22;81.87;101884.75;5067220;28;20121;-86
2021/08/17 05:33:13;;;;;;;7.70;2.40;;;;;;;13.31;82.57;101896.44;5062941;28;20103;-86
2021/08/17 05:35:40;;;;;;;6.90;1.58;;;;;;;13.34;82.59;101907.78;5065007;28;20115;-85
2021/08/17 05:38:06;;;;;;;10.93;2.00;;;;;;;13.33;82.86;101902.53;5069954;28;20078;-86
2021/08/17 05:40:32;;;;;;;5.32;1.50;;;;;;;13.33;83.27;101911.47;5083652;28;20033;-86
2021/08/17 05:42:57;;;;;;;6.60;2.00;;;;;;;13.31;82.98;101905.41;5074794;28;20390;-86
2021/08/17 05:45:23;;;;;;;6.53;1.33;;;;;;;13.31;83.30;101905.41;5056925;28;20448;-86
2021/08/17 05:47:49;;;;;;;8.02;1.90;;;;;;;13.28;83.68;101904.88;5090207;28;20390;-85
2021/08/17 05:50:16;;;;;;;6.03;1.40;;;;;;;13.16;83.77;101885.41;5069855;28;20020;-85
2021/08/17 05:52:42;;;;;;;6.93;1.58;;;;;;;13.23;84.24;101893.69;5068895;28;20501;-85
2021/08/17 05:55:08;;;;;;;9.00;1.60;;;;;;;13.25;84.49;101888.97;5085187;28;20035;-86
2021/08/17 05:57:37;;;;;;;9.68;1.40;;;;;;;13.37;84.55;101923.63;5082406;28;20032;-86
2021/08/17 06:00:05;;;;;;;7.07;1.75;;;;;;;13.16;84.88;101890.81;5051954;28;20031;-86
2021/08/17 06:02:31;;;;;;;5.07;1.38;;;;;;;13.34;85.63;101920.44;5072917;28;20082;-85
2021/08/17 06:04:56;;;;;;;6.63;1.27;;;;;;;13.22;86.11;101906.34;5048886;28;20028;-87
2021/08/17 06:07:22;;;;;;;6.88;1.48;;;;;;;13.36;86.26;101924.66;5050987;28;20063;-85
2021/08/17 06:09:48;;;;;;;4.50;1.13;;;;;;;13.33;86.23;101921.44;5069316;28;20062;-84
2021/08/17 06:12:13;;;;;;;7.10;1.55;;;;;;;13.18;86.63;101902.31;5055777;28;20028;-85
2021/08/17 06:14:41;;;;;;;3.90;1.00;;;;;;;13.26;86.93;101912.25;5062411;28;20050;-86
2021/08/17 06:17:07;;;;;;;4.55;1.20;;;;;;;13.31;86.78;101913.50;5095618;28;20059;-86
2021/08/17 06:19:33;;;;;;;4.15;1.33;;;;;;;13.30;87.61;101929.88;5065593;28;20029;-86
2021/08/17 06:21:58;;;;;;;5.65;1.33;;;;;;;13.33;87.32;101918.72;5056574;28;20039;-88
2021/08/17 06:24:24;;;;;;;4.18;1.42;;;;;;;13.31;87.49;101926.16;5054225;28;20440;-85
2021/08/17 06:26:49;;;;;;;8.85;1.38;;;;;;;13.26;87.73;101923.06;5066584;28;20035;-85
2021/08/17 06:29:15;;;;;;;6.95;1.38;;;;;;;13.33;87.73;101924.97;5070482;28;20027;-85
2021/08/17 06:31:41;;;;;;;3.40;1.00;;;;;;;13.28;88.02;101915.69;5084243;28;20036;-85
2021/08/17 06:34:07;;;;;;;6.75;1.20;;;;;;;13.25;88.29;101921.38;5080241;28;20020;-85
2021/08/17 06:36:35;;;;;;;6.85;1.30;;;;;;;13.19;88.59;101901.28;5052902;28;20028;-86
2021/08/17 06:39:01;;;;;;;5.13;1.00;;;;;;;13.26;88.74;101926.66;5048289;28;20475;-85
2021/08/17 06:41:27;;;;;;;9.50;1.38;;;;;;;13.23;88.96;101907.19;5064394;28;20379;-85
2021/08/17 06:43:53;;;;;;;5.28;0.80;;;;;;;13.26;89.28;101913.16;5060146;28;20023;-85
2021/08/17 06:46:19;;;;;;;3.50;1.30;;;;;;;13.23;89.52;101918.00;5077409;28;20097;-85
2021/08/17 06:48:44;;;;;;;2.53;1.05;;;;;;;13.12;89.70;101892.97;5050786;28;20032;-86
2021/08/17 06:51:10;;;;;;;2.40;1.02;;;;;;;13.33;89.86;101933.06;5079185;28;20070;-85
2021/08/17 06:53:38;;;;;;;3.88;0.82;;;;;;;13.36;89.64;101934.59;5082862;28;20031;-84
2021/08/17 06:56:04;;;;;;;7.18;1.20;;;;;;;13.39;89.95;101926.19;5069245;28;20150;-85
2021/08/17 06:58:29;;;;;;;7.55;1.40;;;;;;;13.35;90.03;101919.41;5062823;28;20126;-85
2021/08/17 07:00:55;;;;;;;7.40;1.42;;;;;;;13.40;90.33;101938.66;5084675;28;20012;-86
2021/08/17 07:03:21;;;;;;;4.35;1.35;;;;;;;13.43;90.43;101932.09;5078187;28;20145;-86
2021/08/17 07:05:46;;;;;;;4.78;0.77;;;;;;;13.40;90.25;101930.56;5073087;28;20421;-87
2021/08/17 07:08:13;;;;;;;8.20;1.13;;;;;;;13.54;90.01;101937.19;5060398;28;20078;-86
2021/08/17 07:10:39;;;;;;;3.10;0.90;;;;;;;13.55;89.85;101934.31;5068530;28;20535;-86
2021/08/17 07:13:05;;;;;;;7.70;1.45;;;;;;;13.67;89.60;101947.50;5097687;28;20028;-87
2021/08/17 07:15:30;;;;;;;7.03;1.10;;;;;;;13.49;89.75;101904.41;5084557;28;20063;-86
2021/08/17 07:17:56;;;;;;;10.55;1.90;;;;;;;13.77;89.09;101940.09;5070427;28;20115;-86
2021/08/17 07:20:22;;;;;;;7.88;1.90;;;;;;;13.77;89.46;101930.09;5083650;28;20028;-86
2021/08/17 07:22:47;;;;;;;7.03;1.70;;;;;;;13.71;89.06;101911.03;5087633;28;20081;-86
2021/08/17 07:25:14;;;;;;;9.73;2.15;;;;;;;13.90;89.02;101937.72;5078059;28;20020;-86
2021/08/17 07:27:42;;;;;;;9.73;1.90;;;;;;;13.96;88.80;101934.31;5098121;28;20038;-88
2021/08/17 07:30:12;;;;;;;9.88;2.22;;;;;;;13.99;88.42;101939.38;5095559;28;20507;-87
2021/08/17 07:32:45;;;;;;;7.18;1.52;;;;;;;13.96;88.48;101934.31;5072524;28;20048;-86
2021/08/17 07:35:15;;;;;;;11.52;3.13;;;;;;;14.05;88.45;101951.38;5063335;28;20096;-87
2021/08/17 07:37:42;;;;;;;12.95;2.25;;;;;;;14.04;88.29;101939.72;5060909;28;20036;-86
2021/08/17 07:40:09;;;;;;;7.30;1.83;;;;;;;14.05;88.46;101940.56;5066653;28;20039;-85
2021/08/17 07:42:35;;;;;;;9.02;1.80;;;;;;;14.07;88.17;101949.38;5071329;28;20105;-85
2021/08/17 07:45:02;;;;;;;12.88;2.80;;;;;;;14.10;88.26;101965.25;5050680;28;20475;-84
2021/08/17 07:47:27;;;;;;;9.35;2.58;;;;;;;14.05;88.33;101951.38;5077536;28;20031;-85
2021/08/17 07:49:53;;;;;;;11.10;2.88;;;;;;;14.07;87.69;101950.19;5048898;28;20165;-86
2021/08/17 07:52:19;;;;;;;11.98;2.88;;;;;;;14.12;87.97;101948.88;5050791;28;20115;-86
2021/08/17 07:54:45;;;;;;;16.02;3.00;;;;;;;14.06;88.07;101945.81;5083972;28;20054;-86
2021/08/17 07:57:10;;;;;;;11.32;2.60;;;;;;;14.13;87.66;101951.41;5053793;28;20063;-85
2021/08/17 07:59:36;;;;;;;14.20;3.25;;;;;;;13.96;87.70;101919.97;5071370;28;20024;-85
2021/08/17 08:02:02;;;;;;;14.82;2.70;;;;;;;14.00;87.67;101930.28;5071827;28;20020;-86
2021/08/17 08:04:28;;;;;;;13.23;2.97;;;;;;;14.16;87.67;101956.47;5071612;28;20028;-86
2021/08/17 08:06:54;;;;;;;16.50;3.05;;;;;;;14.15;87.22;101953.94;5052703;28;20706;-86
2021/08/17 08:09:19;;;;;;;10.68;2.88;;;;;;;14.21;87.41;101964.06;5089743;28;20020;-85
2021/08/17 08:11:45;;;;;;;7.57;2.15;;;;;;;14.17;87.42;101963.56;5052040;28;20048;-86
2021/08/17 08:14:11;;;;;;;9.82;2.42;;;;;;;14.11;87.49;101947.19;5055549;28;20092;-85
2021/08/17 08:16:36;;;;;;;12.30;2.85;;;;;;;14.03;87.91;101946.16;5074011;28;20028;-87
2021/08/17 08:19:10;;;;;;;10.52;2.70;;;;;;;14.10;88.04;101954.44;5051666;28;20029;-85
2021/08/17 08:21:56;;;;;;;9.55;1.95;;;;;;;13.94;88.48;101924.69;5073781;28;20036;-86
2021/08/17 08:24:22;;;;;;;8.18;2.33;;;;;;;14.16;88.60;101953.78;5053894;28;20040;-85
2021/08/17 08:26:47;;;;;;;7.97;2.42;;;;;;;14.19;88.36;101958.00;5070719;28;20035;-86
2021/08/17 08:29:13;;;;;;;10.88;2.30;;;;;;;14.24;88.10;101959.16;5044148;28;20024;-85
2021/08/17 08:31:39;;;;;;;7.05;2.08;;;;;;;14.04;88.19;101931.63;5066450;28;20596;-89
2021/08/17 08:34:05;;;;;;;6.03;2.05;;;;;;;14.20;88.25;101960.50;5068758;28;20054;-87
2021/08/17 08:36:30;;;;;;;19.70;3.38;;;;;;;14.19;88.51;101952.59;5063443;28;20118;-87
2021/08/17 08:38:56;;;;;;;7.53;1.60;;;;;;;14.27;88.48;101971.50;5093523;28;20024;-86
2021/08/17 08:41:22;;;;;;;6.22;1.90;;;;;;;14.24;88.21;101956.47;5066720;28;20028;-85
2021/08/17 08:43:48;;;;;;;6.32;2.20;;;;;;;14.32;88.06;101971.84;5067527;28;20032;-84
2021/08/17 08:46:19;;;;;;;6.07;1.80;;;;;;;14.26;87.90;101961.69;5080744;28;20024;-85
2021/08/17 08:48:48;;;;;;;6.47;2.20;;;;;;;14.29;88.03;101967.63;5065371;28;20028;-86
2021/08/17 08:51:14;;;;;;;6.63;1.80;;;;;;;14.22;87.83;101944.13;5065929;28;20425;-87
2021/08/17 08:53:40;;;;;;;5.93;1.60;;;;;;;14.40;87.89;101969.13;5052285;28;20035;-86
2021/08/17 08:56:06;;;;;;;8.10;1.88;;;;;;;14.42;87.26;101969.81;5050824;28;20032;-87
2021/08/17 08:58:32;;;;;;;6.60;2.00;;;;;;;14.43;87.48;101974.19;5062287;28;20052;-85
2021/08/17 09:00:57;;;;;;;5.50;1.88;;;;;;;14.42;87.50;101966.22;5069540;28;20023;-85
2021/08/17 09:03:58;;;;;;;7.50;2.00;;;;;;;14.46;87.39;101967.59;5053646;28;20031;-86
2021/08/17 09:06:25;;;;;;;6.90;1.60;;;;;;;14.50;86.98;101972.50;5073796;28;20054;-86
2021/08/17 09:09:06;;;;;;;6.22;1.60;;;;;;;14.45;86.77;101964.03;5067734;28;20109;-86
2021/08/17 09:11:32;;;;;;;6.97;1.98;;;;;;;14.53;86.41;101976.75;5069365;28;20036;-87
2021/08/17 09:14:21;;;;;;;8.32;1.98;;;;;;;14.57;86.53;101983.50;5071813;28;20066;-86
2021/08/17 09:17:01;;;;;;;5.07;1.65;;;;;;;14.57;86.30;101974.53;5051823;28;20119;-87
2021/08/17 09:19:36;;;;;;;9.15;2.05;;;;;;;14.62;86.13;101983.00;5068161;28;20039;-87
2021/08/17 09:22:02;;;;;;;5.88;1.80;;;;;;;14.61;86.19;101984.84;5088458;28;20077;-86
2021/08/17 09:24:36;;;;;;;8.60;1.70;;;;;;;14.57;86.13;101974.53;5092912;28;20019;-86
2021/08/17 09:27:05;;;;;;;8.57;2.13;;;;;;;14.61;86.14;101973.19;5058056;28;20020;-84
2021/08/17 09:29:37;;;;;;;6.80;2.20;;;;;;;14.63;85.91;101987.38;5067927;28;20031;-85
2021/08/17 09:32:26;;;;;;;10.27;2.40;;;;;;;14.60;86.28;101975.03;5067971;28;20024;-86
2021/08/17 09:34:56;;;;;;;5.90;1.50;;;;;;;14.58;86.37;101977.09;5069649;28;20097;-86
2021/08/17 09:37:27;;;;;;;9.90;2.40;;;;;;;14.68;86.48;101985.84;5073624;28;20047;-86
2021/08/17 09:39:57;;;;;;;5.63;1.50;;;;;;;14.72;86.23;101978.22;5075443;28;20056;-85
2021/08/17 09:42:28;;;;;;;5.57;2.00;;;;;;;14.79;86.29;101976.53;5073636;28;20643;-86
2021/08/17 09:45:09;;;;;;;7.78;2.00;;;;;;;14.88;86.06;101990.88;5076213;28;20030;-87
2021/08/17 09:47:36;;;;;;;7.32;1.60;;;;;;;14.82;86.17;101978.88;5073134;28;20035;-85
2021/08/17 09:50:29;;;;;;;5.60;1.60;;;;;;;14.92;86.31;101982.25;5053935;28;20483;-85
2021/08/17 09:53:06;;;;;;;5.07;1.30;;;;;;;15.00;86.09;101973.22;5065569;28;20028;-87
2021/08/17 09:55:52;;;;;;;6.20;1.63;;;;;;;14.94;85.95;101969.34;5068898;28;20074;-87
2021/08/17 09:58:32;;;;;;;8.15;1.50;;;;;;;15.08;85.86;101980.47;5091181;28;20036;-86
2021/08/17 10:01:02;;;;;;;5.75;1.60;;;;;;;15.13;85.92;101978.91;5054974;28;20067;-86
2021/08/17 10:03:28;;;;;;;3.42;1.10;;;;;;;15.17;85.98;101979.44;5048523;28;20127;-85
2021/08/17 10:05:55;;;;;;;5.85;1.10;;;;;;;15.18;85.77;101991.94;5071297;28;20045;-86
2021/08/17 10:08:22;;;;;;;1.67;1.00;;;;;;;15.15;85.83;101990.41;5070948;28;20408;-87
2021/08/17 10:10:50;;;;;;;2.05;1.02;;;;;;;15.12;85.90;101988.06;5055977;28;20071;-84
2021/08/17 10:13:17;;;;;;;7.32;1.67;;;;;;;15.15;85.90;101985.00;5057918;28;20016;-87
2021/08/17 10:15:44;;;;;;;4.78;1.20;;;;;;;15.14;86.08;101980.63;5069673;28;20021;-86
2021/08/17 10:18:12;;;;;;;5.28;1.23;;;;;;;15.15;86.03;101982.28;5051347;28;20115;-87
2021/08/17 10:20:38;;;;;;;6.75;1.40;;;;;;;15.12;85.87;101974.53;5054551;28;20076;-86
2021/08/17 10:23:06;;;;;;;5.38;1.73;;;;;;;15.08;85.97;101975.91;5070200;28;20537;-87
2021/08/17 10:25:43;;;;;;;3.28;1.35;;;;;;;15.18;86.08;101976.50;5090451;28;20052;-85
2021/08/17 10:28:27;;;;;;;3.75;1.85;;;;;;;15.24;85.84;101975.00;5081541;28;20106;-86
2021/08/17 10:30:53;;;;;;;3.78;0.98;;;;;;;15.28;85.52;101975.47;5080365;28;20025;-86
2021/08/17 10:33:53;;;;;;;3.65;1.00;;;;;;;15.39;84.87;101984.03;5055835;28;20437;-86
2021/08/17 10:36:35;;;;;;;4.45;0.90;;;;;;;15.41;84.67;101978.44;5067798;28;20566;-85
2021/08/17 10:39:07;;;;;;;4.47;1.17;;;;;;;15.41;84.54;101983.88;5070267;28;20085;-85
2021/08/17 10:41:38;;;;;;;4.18;0.93;;;;;;;15.50;84.26;101980.06;5054132;28;21020;-85
2021/08/17 10:44:09;;;;;;;5.10;1.30;;;;;;;15.51;84.24;101981.78;5050548;28;20436;-87
2021/08/17 10:46:53;;;;;;;5.28;1.20;;;;;;;15.49;84.29;101978.41;5089412;28;20027;-86
2021/08/17 10:49:35;;;;;;;4.90;1.55;;;;;;;15.47;84.61;101977.72;5080448;28;20023;-85
2021/08/17 10:52:04;;;;;;;4.70;1.67;;;;;;;15.59;84.46;101983.59;5081926;28;20035;-86
2021/08/17 10:54:30;;;;;;;7.45;2.03;;;;;;;15.68;84.23;101987.94;5065985;28;20127;-87
2021/08/17 10:57:13;;;;;;;3.25;1.10;;;;;;;15.79;84.10;101978.56;5050348;28;20024;-87
2021/08/17 10:59:39;;;;;;;;;;;;;;;15.87;83.51;101980.38;5065673;28;20028;-87
2021/08/17 11:02:06;;;;;;;5.22;1.27;;;;;;;15.96;83.25;101980.16;5072690;28;20591;-86
2021/08/17 11:04:45;;;;;;;6.40;1.65;;;;;;;16.03;83.06;101975.66;5060614;28;20078;-86
2021/08/17 11:07:25;;;;;;;5.03;1.25;;;;;;;16.06;82.84;101969.03;5051941;28;20024;-87
2021/08/17 11:09:52;;;;;;;4.45;1.55;;;;;;;15.94;82.48;101943.38;5080429;28;20139;-87
2021/08/17 11:12:18;;;;;;;4.85;1.48;;;;;;;16.04;82.31;101980.09;5063816;28;20019;-86
2021/08/17 11:14:45;;;;;;;2.85;1.17;;;;;;;15.93;82.27;101974.22;5051384;28;20396;-85
2021/08/17 11:17:13;;;;;;;4.55;1.33;;;;;;;15.91;82.54;101971.72;5061282;28;20028;-87
2021/08/17 11:19:41;;;;;;;7.00;1.50;;;;;;;15.95;82.50;101961.34;5086327;28;20034;-85
2021/08/17 11:22:09;;;;;;;4.15;1.35;;;;;;;16.13;82.18;101964.56;5051493;28;20127;-86
2021/08/17 11:24:34;;;;;;;3.72;1.30;;;;;;;16.37;81.92;101966.22;5048081;28;20024;-85
2021/08/17 11:27:07;;;;;;;3.45;1.45;;;;;;;16.38;81.19;101967.91;5066495;28;20020;-85